Decoded Metar for WBKT (KUDAT in MALAYSIA) (IATA:KUD) | Meteo·Mobile Aviation Weather
aviador You're here:

WBKT Decoded Metar

KUDAT in MALAYSIA
Report Time2018-09-18 15:00:00
UTC Time2018-09-18 15:38:11
Flight Rules vfr VFR
WindVRB at 02 kt
Visibility9999 m
Phenomena:N/A
Clouds:Few 014 Hf
Scattered 140 Hf
Broken 280 Hf
Expected CloudBase > 400 ft AGL from Temp-Dew spread
Ceiling28,000 ft
Temp26°C (ISA +11)
Dew Point25°C (94% RH)
QNH1010 hPa
Density Alt1,808 ft
Elevation16 ft
Report Wrong Elevation
Raw Report
WBKT 181500Z VRB02KT 9999 FEW014 SCT140 BKN280 26/25 Q1010=

Extra information for WBKT:More info

Metar Taf Metar & Taf Last 4 Metars F.Rules Stats Wind Profile Meteogram Temp Stats Airport Information Weather charts Add Link Nearby VenuesMetar ALERT Operation Metar Decoded Social comments